Time;durP1;ratioP1;P1;durP2;ratioP2;P2;SDS_P1;SDS_P2;PMS_P1;PMS_P2;Temp;Humidity;BMP_temperature;BMP_pressure;BME280_temperature;BME280_humidity;BME280_pressure;Samples;Min_cycle;Max_cycle;Signal;HPM_P1;HPM_P2
2021/12/04 00:01:27;;;;;;;33.97;16.30;;;;;;;2.51;100.00;99300.59;7396105;19;20459;-54
2021/12/04 00:03:57;;;;;;;32.67;15.50;;;;;;;2.53;100.00;99302.44;7402878;19;20396;-49
2021/12/04 00:06:29;;;;;;;19.03;8.50;;;;;;;2.54;100.00;99301.63;7395521;19;20502;-50
2021/12/04 00:09:04;;;;;;;18.67;8.77;;;;;;;2.47;100.00;99301.22;7400639;19;20376;-53
2021/12/04 00:11:36;;;;;;;30.97;16.87;;;;;;;2.53;100.00;99297.34;7396098;19;20691;-53
2021/12/04 00:14:08;;;;;;;35.97;16.80;;;;;;;2.52;100.00;99302.34;7400677;19;20389;-49
2021/12/04 00:16:38;;;;;;;33.30;12.97;;;;;;;2.49;100.00;99297.97;7394885;19;20494;-54
2021/12/04 00:19:07;;;;;;;33.70;14.30;;;;;;;2.51;100.00;99301.44;7400601;19;20387;-49
2021/12/04 00:21:37;;;;;;;28.33;14.83;;;;;;;2.52;100.00;99303.19;7398816;19;20452;-51
2021/12/04 00:24:07;;;;;;;38.60;18.40;;;;;;;2.56;100.00;99294.94;7404375;19;20418;-48
2021/12/04 00:26:36;;;;;;;26.63;12.10;;;;;;;2.53;100.00;99296.44;7393666;19;20872;-52
2021/12/04 00:29:09;;;;;;;37.30;19.00;;;;;;;2.56;100.00;99294.03;7400278;19;20921;-51
2021/12/04 00:31:43;;;;;;;37.30;17.40;;;;;;;2.64;100.00;99289.34;7395672;19;20932;-51
2021/12/04 00:34:12;;;;;;;40.10;20.07;;;;;;;2.64;100.00;99291.88;7400248;19;20404;-51
2021/12/04 00:36:56;;;;;;;35.13;16.17;;;;;;;2.61;100.00;99296.84;7394115;19;20438;-50
2021/12/04 00:50:29;;;;;;;46.47;19.40;;;;;;;2.54;100.00;99288.88;7394935;19;20423;-48
2021/12/04 00:52:58;;;;;;;32.57;15.00;;;;;;;2.55;100.00;99288.09;7399587;19;20391;-47
2021/12/04 00:55:28;;;;;;;51.27;21.73;;;;;;;2.67;100.00;99286.97;7394111;19;20917;-51
2021/12/04 00:57:57;;;;;;;53.13;22.33;;;;;;;2.61;100.00;99289.19;7397722;19;20483;-49
2021/12/04 01:00:29;;;;;;;30.27;13.57;;;;;;;2.53;100.00;99289.69;7394406;19;20448;-47
2021/12/04 01:02:59;;;;;;;45.27;20.20;;;;;;;2.61;100.00;99281.56;7397960;19;20393;-46
2021/12/04 01:05:29;;;;;;;47.67;22.13;;;;;;;2.60;100.00;99284.91;7393855;19;20426;-48
2021/12/04 01:07:58;;;;;;;35.83;15.98;;;;;;;2.56;100.00;99284.75;7397339;19;20483;-53
2021/12/04 01:10:28;;;;;;;46.13;21.73;;;;;;;2.64;100.00;99292.78;7393984;19;20250;-52
2021/12/04 01:13:00;;;;;;;57.80;25.30;;;;;;;2.65;100.00;99293.63;7398954;19;20408;-54
2021/12/04 01:15:33;;;;;;;51.00;20.77;;;;;;;2.67;100.00;99298.00;7395731;19;20422;-50
2021/12/04 01:18:02;;;;;;;41.07;19.83;;;;;;;2.58;100.00;99292.47;7397173;19;20493;-49
2021/12/04 01:20:32;;;;;;;34.30;14.57;;;;;;;2.57;100.00;99298.38;7393736;19;20419;-54
2021/12/04 01:23:01;;;;;;;47.37;20.40;;;;;;;2.62;100.00;99293.50;7397438;19;20390;-53
2021/12/04 01:25:31;;;;;;;41.60;18.83;;;;;;;2.66;100.00;99297.94;7393111;19;20418;-54
2021/12/04 01:28:00;;;;;;;34.77;13.80;;;;;;;2.59;100.00;99295.88;7396649;19;20489;-48
2021/12/04 01:30:33;;;;;;;36.43;17.57;;;;;;;2.57;100.00;99295.81;7393760;19;20415;-50
2021/12/04 01:33:02;;;;;;;43.00;18.20;;;;;;;2.56;100.00;99294.94;7398568;19;20390;-52
2021/12/04 01:35:32;;;;;;;41.70;20.13;;;;;;;2.60;100.00;99295.97;7392618;19;20480;-49
2021/12/04 01:38:02;;;;;;;49.17;22.87;;;;;;;2.66;100.00;99303.91;7399132;19;20410;-52
2021/12/04 01:40:31;;;;;;;46.03;20.73;;;;;;;2.68;100.00;99301.44;7400952;19;20417;-48
2021/12/04 01:43:01;;;;;;;49.80;22.13;;;;;;;2.60;100.00;99290.84;7404069;19;20471;-52
2021/12/04 01:45:33;;;;;;;30.90;14.07;;;;;;;2.55;100.00;99292.28;7399969;19;20398;-52
2021/12/04 01:48:03;;;;;;;49.53;20.50;;;;;;;2.60;100.00;99292.56;7403134;19;20875;-48
2021/12/04 01:50:33;;;;;;;44.67;17.83;;;;;;;2.58;100.00;99294.13;7400711;19;20482;-51
2021/12/04 01:53:03;;;;;;;32.27;11.37;;;;;;;2.55;100.00;99293.19;7405587;19;20389;-53
2021/12/04 01:55:35;;;;;;;28.30;11.17;;;;;;;2.54;100.00;99296.53;7401249;19;20480;-51
2021/12/04 01:58:06;;;;;;;40.97;17.30;;;;;;;2.56;100.00;99300.03;7402564;19;20438;-49
2021/12/04 02:00:40;;;;;;;33.47;13.60;;;;;;;2.53;100.00;99292.25;7402406;19;20868;-51
2021/12/04 02:03:13;;;;;;;26.33;10.65;;;;;;;2.60;100.00;99288.31;7403466;19;20418;-51
2021/12/04 02:05:43;;;;;;;30.90;12.93;;;;;;;2.55;100.00;99297.38;7395264;19;20251;-52
2021/12/04 02:08:17;;;;;;;23.53;11.70;;;;;;;2.55;100.00;99295.72;7402144;19;20399;-51
2021/12/04 02:10:49;;;;;;;39.53;18.10;;;;;;;2.58;100.00;99296.66;7400181;19;20952;-50
2021/12/04 02:13:19;;;;;;;35.50;14.70;;;;;;;2.55;100.00;99298.28;7404908;19;20392;-54
2021/12/04 02:15:51;;;;;;;37.77;17.63;;;;;;;2.51;100.00;99298.91;7398686;19;20683;-47
2021/12/04 02:18:22;;;;;;;37.35;19.20;;;;;;;2.52;100.00;99298.09;7407163;19;20387;-54
2021/12/04 02:20:55;;;;;;;46.20;19.73;;;;;;;2.55;100.00;99303.38;7400226;19;20188;-54
2021/12/04 02:23:24;;;;;;;35.70;15.40;;;;;;;2.58;100.00;99312.84;7403038;19;20903;-52
2021/12/04 02:25:54;;;;;;;39.20;16.73;;;;;;;2.54;100.00;99300.75;7398979;19;20674;-54
2021/12/04 02:28:23;;;;;;;33.63;15.53;;;;;;;2.53;100.00;99302.44;7404378;19;20391;-47
2021/12/04 02:30:54;;;;;;;30.00;14.40;;;;;;;2.52;100.00;99300.66;7401417;19;20454;-47
2021/12/04 02:33:23;;;;;;;29.87;12.93;;;;;;;2.52;100.00;99298.09;7404159;19;20449;-52
2021/12/04 02:35:57;;;;;;;44.20;18.73;;;;;;;2.60;100.00;99295.09;7397284;19;20735;-48
2021/12/04 02:38:28;;;;;;;41.63;18.73;;;;;;;2.64;100.00;99302.06;7404144;19;20379;-51
2021/12/04 02:41:00;;;;;;;41.40;18.33;;;;;;;2.60;100.00;99290.00;7399312;19;20424;-53
2021/12/04 02:43:30;;;;;;;41.67;17.97;;;;;;;2.61;100.00;99296.84;7402368;19;20443;-47
2021/12/04 02:45:59;;;;;;;27.07;10.50;;;;;;;2.49;100.00;99297.97;7397853;19;20430;-54
2021/12/04 02:48:29;;;;;;;39.10;18.40;;;;;;;2.53;100.00;99292.25;7406628;19;20394;-48
2021/12/04 02:51:02;;;;;;;36.73;16.30;;;;;;;2.53;100.00;99289.69;7398874;19;20416;-52
2021/12/04 02:53:31;;;;;;;27.07;12.20;;;;;;;2.52;100.00;99295.56;7403657;19;20405;-54
2021/12/04 02:56:01;;;;;;;43.07;18.43;;;;;;;2.60;100.00;99287.47;7397987;19;20436;-47
2021/12/04 02:58:31;;;;;;;41.03;17.40;;;;;;;2.55;100.00;99282.09;7403414;19;20943;-47
2021/12/04 03:01:00;;;;;;;35.90;15.63;;;;;;;2.52;100.00;99276.88;7398547;19;20883;-46
2021/12/04 03:03:31;;;;;;;40.97;17.97;;;;;;;2.55;100.00;99282.09;7401939;19;20393;-48
2021/12/04 03:06:03;;;;;;;38.00;15.00;;;;;;;2.53;100.00;99284.59;7397746;19;20413;-53
2021/12/04 03:08:33;;;;;;;37.83;15.00;;;;;;;2.54;100.00;99290.56;7402736;19;20404;-50
2021/12/04 03:11:02;;;;;;;40.50;19.90;;;;;;;2.61;100.00;99277.31;7398180;19;20474;-52
2021/12/04 03:13:32;;;;;;;37.40;15.27;;;;;;;2.56;100.00;99279.66;7402717;19;20394;-53
2021/12/04 03:16:01;;;;;;;41.90;19.43;;;;;;;2.51;100.00;99276.00;7396890;19;20505;-52
2021/12/04 03:18:31;;;;;;;51.27;22.00;;;;;;;2.56;100.00;99279.66;7404236;19;20461;-54
2021/12/04 03:21:05;;;;;;;43.40;18.80;;;;;;;2.56;100.00;99274.56;7397983;19;20424;-48
2021/12/04 03:23:41;;;;;;;40.47;19.07;;;;;;;2.56;100.00;99269.47;7401577;19;20463;-54
2021/12/04 03:26:11;;;;;;;49.17;23.20;;;;;;;2.56;100.00;99261.81;7396774;19;20418;-48
2021/12/04 03:28:41;;;;;;;47.53;19.50;;;;;;;2.51;100.00;99263.25;7402481;19;20880;-51
2021/12/04 03:31:13;;;;;;;38.80;15.47;;;;;;;2.53;100.00;99260.78;7397408;19;20438;-49
2021/12/04 03:41:52;;;;;;;47.60;23.23;;;;;;;2.55;100.00;99257.53;7396336;19;20401;-49
2021/12/04 03:44:21;;;;;;;54.63;24.53;;;;;;;2.56;100.00;99260.94;7400464;19;20392;-54
2021/12/04 03:46:51;;;;;;;52.13;25.23;;;;;;;2.64;100.00;99256.22;7395794;19;20723;-49
2021/12/04 03:49:21;;;;;;;51.23;22.63;;;;;;;2.65;100.00;99255.44;7401821;19;20386;-52
2021/12/04 03:51:53;;;;;;;47.60;22.20;;;;;;;2.68;100.00;99253.03;7396295;19;20774;-52
2021/12/04 03:54:23;;;;;;;41.97;17.40;;;;;;;2.59;100.00;99262.75;7401633;19;20380;-53
2021/12/04 03:57:02;;;;;;;50.77;21.90;;;;;;;2.60;100.00;99259.44;7395092;19;20758;-51
2021/12/04 03:59:32;;;;;;;51.43;21.47;;;;;;;2.56;100.00;99254.19;7397265;19;20407;-54
2021/12/04 04:02:01;;;;;;;54.83;25.10;;;;;;;2.67;100.00;99238.56;7402996;19;20475;-52
2021/12/04 04:04:31;;;;;;;50.53;22.47;;;;;;;2.63;100.00;99240.09;7395383;19;20392;-54
2021/12/04 04:07:04;;;;;;;49.90;23.30;;;;;;;2.60;100.00;99234.84;7403058;19;20413;-50
2021/12/04 04:09:34;;;;;;;53.40;23.90;;;;;;;2.60;100.00;99239.06;7396073;19;20409;-48
2021/12/04 04:12:05;;;;;;;52.53;22.30;;;;;;;2.63;100.00;99234.13;7400346;19;20383;-50
2021/12/04 04:14:34;;;;;;;55.57;23.73;;;;;;;2.65;100.00;99237.59;7396705;19;20718;-51
2021/12/04 04:17:06;;;;;;;56.30;22.57;;;;;;;2.65;100.00;99237.59;7398789;19;20425;-47
2021/12/04 04:19:35;;;;;;;60.83;26.00;;;;;;;2.59;100.00;99240.72;7396818;19;20645;-47
2021/12/04 04:22:09;;;;;;;56.27;24.87;;;;;;;2.61;100.00;99236.56;7401594;19;20399;-51
2021/12/04 04:24:38;;;;;;;55.67;23.07;;;;;;;2.61;100.00;99238.25;7395771;19;20859;-47
2021/12/04 04:27:08;;;;;;;55.90;25.20;;;;;;;2.66;100.00;99240.22;7398328;19;20506;-52
2021/12/04 04:29:38;;;;;;;67.27;27.80;;;;;;;2.63;100.00;99239.22;7395962;19;20448;-50
2021/12/04 04:32:08;;;;;;;53.80;24.40;;;;;;;2.70;100.00;99244.69;7399615;19;20385;-49
2021/12/04 04:34:38;;;;;;;52.13;21.40;;;;;;;2.63;100.00;99241.75;7396146;19;20442;-52
2021/12/04 04:37:19;;;;;;;64.83;27.50;;;;;;;2.70;100.00;99236.16;7398596;19;20438;-51
2021/12/04 04:40:21;;;;;;;62.53;27.73;;;;;;;2.70;100.00;99231.94;7395103;19;21091;-48
2021/12/04 04:59:20;;;;;;;63.83;27.23;;;;;;;2.67;100.00;99241.97;7399575;19;20384;-50
2021/12/04 05:13:00;;;;;;;66.07;27.93;;;;;;;2.76;100.00;99235.59;7400643;19;20375;-50
2021/12/04 05:15:40;;;;;;;64.30;27.60;;;;;;;2.74;100.00;99239.72;7400970;19;20729;-47
2021/12/04 05:18:20;;;;;;;64.83;27.60;;;;;;;2.90;100.00;99236.25;7403732;19;20426;-54
2021/12/04 05:20:53;;;;;;;63.23;26.27;;;;;;;2.91;100.00;99231.22;7402329;19;20430;-51
2021/12/04 05:23:23;;;;;;;58.87;25.90;;;;;;;2.99;100.00;99233.28;7406526;19;20404;-46
2021/12/04 05:25:55;;;;;;;68.73;28.87;;;;;;;2.89;100.00;99237.06;7399071;19;20425;-46
2021/12/04 05:28:25;;;;;;;64.77;29.90;;;;;;;3.04;100.00;99237.81;7406355;19;20383;-50
2021/12/04 05:30:56;;;;;;;57.83;26.60;;;;;;;3.06;100.00;99237.84;7401452;19;20433;-47
2021/12/04 05:33:25;;;;;;;65.57;30.60;;;;;;;3.05;100.00;99234.44;7406212;19;20681;-46
2021/12/04 05:35:55;;;;;;;57.73;28.70;;;;;;;3.15;100.00;99232.31;7400638;19;20430;-47
2021/12/04 05:38:25;;;;;;;58.27;26.97;;;;;;;3.00;100.00;99235.91;7406539;19;20438;-46
2021/12/04 05:40:59;;;;;;;61.07;26.03;;;;;;;2.86;100.00;99224.19;7401065;19;20440;-52
2021/12/04 05:43:29;;;;;;;54.80;27.03;;;;;;;3.02;100.00;99221.53;7405987;19;20453;-49
2021/12/04 05:46:04;;;;;;;57.27;27.67;;;;;;;3.06;100.00;99223.44;7398779;19;20487;-49
2021/12/04 05:48:41;;;;;;;62.03;26.90;;;;;;;2.84;100.00;99224.97;7405636;19;20379;-49
2021/12/04 05:54:19;;;;;;;61.80;24.57;;;;;;;2.80;100.00;99225.63;7405364;19;20400;-49
2021/12/04 05:56:51;;;;;;;56.37;25.57;;;;;;;2.77;100.00;99222.91;7400850;19;20435;-51
2021/12/04 05:59:20;;;;;;;53.67;25.60;;;;;;;2.88;100.00;99222.56;7405272;19;20398;-51
2021/12/04 06:01:50;;;;;;;64.93;24.57;;;;;;;3.00;100.00;99233.34;7402380;19;20443;-49
2021/12/04 06:04:19;;;;;;;50.80;23.97;;;;;;;2.90;100.00;99229.50;7404592;19;20391;-49
2021/12/04 06:06:49;;;;;;;55.90;22.33;;;;;;;2.88;100.00;99231.09;7398471;19;20875;-46
2021/12/04 06:09:18;;;;;;;57.77;25.90;;;;;;;2.83;100.00;99227.44;7404805;19;20455;-48
2021/12/04 06:11:51;;;;;;;52.83;25.53;;;;;;;2.90;100.00;99226.06;7399267;19;20737;-48
2021/12/04 06:14:20;;;;;;;58.30;24.60;;;;;;;2.81;100.00;99227.38;7409178;19;20913;-50
2021/12/04 06:16:49;;;;;;;53.13;24.07;;;;;;;2.83;100.00;99228.31;7396791;19;20474;-50
2021/12/04 06:22:37;;;;;;;50.60;22.90;;;;;;;2.80;100.00;99230.72;7402184;19;20457;-46
2021/12/04 06:24:58;;;;;;;56.20;22.47;;;;;;;2.52;100.00;99221.72;7396122;19;20471;-47
2021/12/04 06:27:30;;;;;;;53.87;23.73;;;;;;;2.55;100.00;99226.97;7399998;19;20423;-50
2021/12/04 06:29:59;;;;;;;46.40;19.70;;;;;;;2.55;100.00;99223.53;7397054;19;20404;-46
2021/12/04 06:32:29;;;;;;;55.70;24.70;;;;;;;2.61;100.00;99223.00;7401645;19;20462;-49
2021/12/04 06:34:58;;;;;;;52.73;24.17;;;;;;;2.68;100.00;99225.03;7400415;19;20411;-47
2021/12/04 06:37:28;;;;;;;52.50;22.40;;;;;;;2.82;100.00;99226.56;7399497;19;20489;-46
2021/12/04 06:39:57;;;;;;;56.90;22.17;;;;;;;2.68;100.00;99222.47;7396570;19;20414;-46
2021/12/04 06:42:29;;;;;;;57.50;24.30;;;;;;;2.66;100.00;99224.09;7401580;19;20655;-50
2021/12/04 06:44:59;;;;;;;54.77;25.17;;;;;;;2.73;100.00;99226.13;7396923;19;20682;-48
2021/12/04 06:47:30;;;;;;;56.57;25.00;;;;;;;2.70;100.00;99215.78;7399177;19;20499;-47
2021/12/04 06:50:04;;;;;;;55.47;25.20;;;;;;;2.70;100.00;99221.75;7396339;19;20492;-48
2021/12/04 06:52:34;;;;;;;56.57;24.70;;;;;;;2.61;100.00;99230.63;7401068;19;20857;-50
2021/12/04 06:55:03;;;;;;;91.67;35.87;;;;;;;2.79;100.00;99221.34;7400037;19;20417;-47
2021/12/04 06:57:38;;;;;;;49.13;19.87;;;;;;;2.54;100.00;99220.13;7398522;19;20921;-47
2021/12/04 07:00:11;;;;;;;51.40;23.10;;;;;;;2.50;100.00;99227.53;7396608;19;21518;-49
2021/12/04 07:02:40;;;;;;;51.50;22.80;;;;;;;2.48;100.00;99224.94;7401117;19;20849;-47
2021/12/04 07:05:10;;;;;;;57.60;25.27;;;;;;;2.53;100.00;99231.13;7395783;19;20428;-46
2021/12/04 07:07:40;;;;;;;57.30;26.97;;;;;;;2.53;100.00;99227.69;7398002;19;20412;-47
2021/12/04 07:10:10;;;;;;;59.67;25.20;;;;;;;2.52;100.00;99231.03;7395413;19;20688;-48
2021/12/04 07:12:42;;;;;;;57.70;24.60;;;;;;;2.46;100.00;99228.19;7400868;19;20451;-46
2021/12/04 07:15:13;;;;;;;53.93;24.17;;;;;;;2.51;100.00;99234.41;7396046;19;20419;-49
2021/12/04 07:17:43;;;;;;;56.60;25.93;;;;;;;2.51;100.00;99235.25;7264697;19;2727320;-50
2021/12/04 07:20:13;;;;;;;49.83;24.13;;;;;;;2.58;100.00;99230.47;7397612;19;20193;-48
2021/12/04 07:22:42;;;;;;;54.97;26.37;;;;;;;2.64;100.00;99235.84;7402454;19;20387;-51
2021/12/04 07:25:12;;;;;;;57.20;24.17;;;;;;;2.61;100.00;99230.63;7397269;19;20439;-48
2021/12/04 07:27:46;;;;;;;47.67;22.80;;;;;;;2.61;100.00;99235.72;7399905;19;20489;-51
2021/12/04 07:30:16;;;;;;;55.90;25.17;;;;;;;2.65;100.00;99233.41;7397823;19;20768;-50
2021/12/04 07:32:45;;;;;;;56.17;25.50;;;;;;;2.64;100.00;99231.66;7402238;19;20386;-49
2021/12/04 07:35:15;;;;;;;51.10;23.77;;;;;;;2.72;100.00;99232.00;7395447;19;20427;-47
2021/12/04 07:37:45;;;;;;;50.80;23.90;;;;;;;2.74;100.00;99225.34;7399832;19;20487;-48
2021/12/04 07:40:19;;;;;;;52.50;22.30;;;;;;;2.76;100.00;99222.88;7397302;19;20479;-48
2021/12/04 07:42:51;;;;;;;47.70;21.67;;;;;;;2.76;100.00;99221.16;7401888;19;20877;-51
2021/12/04 07:45:20;;;;;;;46.00;22.77;;;;;;;2.75;100.00;99221.97;7396193;19;20435;-46
2021/12/04 07:47:50;;;;;;;39.43;20.63;;;;;;;2.68;100.00;99227.56;7399720;19;20414;-50
2021/12/04 07:50:19;;;;;;;43.83;21.47;;;;;;;2.64;100.00;99225.66;7397099;19;20757;-47
2021/12/04 07:52:49;;;;;;;40.17;20.20;;;;;;;2.65;100.00;99214.69;7406019;19;20704;-49
2021/12/04 07:55:19;;;;;;;41.60;20.97;;;;;;;2.68;100.00;99218.25;7396594;19;20451;-51
2021/12/04 07:57:51;;;;;;;37.60;20.13;;;;;;;2.70;100.00;99215.78;7399661;19;20416;-48
2021/12/04 08:00:22;;;;;;;40.40;19.53;;;;;;;2.68;100.00;99214.84;7396472;19;20502;-46
2021/12/04 08:02:52;;;;;;;39.07;19.93;;;;;;;2.77;100.00;99212.72;7401849;19;20392;-49
2021/12/04 08:05:22;;;;;;;41.80;19.23;;;;;;;2.71;100.00;99217.53;7396318;19;20462;-49
2021/12/04 08:07:52;;;;;;;37.37;18.90;;;;;;;2.70;100.00;99218.31;7399203;19;20416;-49
2021/12/04 08:10:22;;;;;;;34.50;18.20;;;;;;;2.69;100.00;99220.03;7396221;19;20482;-47
2021/12/04 08:12:55;;;;;;;35.70;18.80;;;;;;;2.78;100.00;99223.81;7400838;19;20400;-52
2021/12/04 08:15:24;;;;;;;36.50;16.07;;;;;;;2.68;100.00;99222.47;7395596;19;20427;-52
2021/12/04 08:17:54;;;;;;;37.87;18.90;;;;;;;2.69;100.00;99222.56;7398960;19;20471;-49
2021/12/04 08:20:25;;;;;;;36.93;18.57;;;;;;;2.72;100.00;99219.25;7396108;19;20419;-51
2021/12/04 08:22:54;;;;;;;35.23;17.70;;;;;;;2.76;100.00;99221.16;7400641;19;20394;-47
2021/12/04 08:25:25;;;;;;;33.57;18.23;;;;;;;2.76;100.00;99220.31;7394693;19;20421;-46
2021/12/04 08:27:57;;;;;;;34.23;18.97;;;;;;;2.73;100.00;99223.59;7398716;19;20882;-46
2021/12/04 08:30:30;;;;;;;35.63;18.37;;;;;;;2.80;100.00;99225.63;7395413;19;20420;-46
2021/12/04 08:32:59;;;;;;;35.37;18.70;;;;;;;2.86;100.00;99236.91;7400301;19;20388;-48
2021/12/04 08:35:35;;;;;;;29.00;13.33;;;;;;;2.59;100.00;99232.19;7396588;19;20483;-47
2021/12/04 08:38:05;;;;;;;44.23;20.67;;;;;;;2.67;100.00;99239.44;7398175;19;20421;-45
2021/12/04 08:40:36;;;;;;;36.43;16.87;;;;;;;2.77;100.00;99230.56;7395084;19;20419;-46
2021/12/04 08:43:09;;;;;;;37.67;19.40;;;;;;;2.85;100.00;99236.03;7399879;19;20387;-45
2021/12/04 08:45:39;;;;;;;35.97;17.90;;;;;;;2.78;100.00;99232.31;7394045;19;20438;-46
2021/12/04 08:48:09;;;;;;;44.57;20.63;;;;;;;2.70;100.00;99231.94;7397628;19;20412;-46
2021/12/04 08:50:40;;;;;;;53.93;25.17;;;;;;;2.71;100.00;99235.34;7394777;19;20483;-49
2021/12/04 08:53:10;;;;;;;35.30;19.00;;;;;;;2.77;100.00;99245.84;7399820;19;20455;-48
2021/12/04 08:55:42;;;;;;;37.00;17.50;;;;;;;2.62;100.00;99237.47;7393924;19;20411;-46
2021/12/04 08:58:15;;;;;;;34.40;17.10;;;;;;;2.63;100.00;99229.03;7397720;19;20463;-50
2021/12/04 09:00:49;;;;;;;34.57;17.07;;;;;;;2.61;100.00;99228.09;7396740;19;20447;-52
2021/12/04 09:03:21;;;;;;;31.73;15.53;;;;;;;2.64;100.00;99229.09;7399413;19;20414;-48
2021/12/04 09:05:51;;;;;;;35.53;17.43;;;;;;;2.70;100.00;99231.94;7393458;19;20490;-46
2021/12/04 09:08:22;;;;;;;31.13;15.93;;;;;;;2.68;100.00;99232.66;7398977;19;20396;-49
2021/12/04 09:10:54;;;;;;;33.93;17.90;;;;;;;2.75;100.00;99234.72;7394231;19;20479;-47
2021/12/04 09:13:28;;;;;;;41.63;21.23;;;;;;;2.80;100.00;99228.19;7399223;19;20399;-49
2021/12/04 09:15:59;;;;;;;27.67;15.33;;;;;;;2.84;100.00;99227.50;7392769;19;20502;-46
2021/12/04 09:18:29;;;;;;;31.00;17.23;;;;;;;2.80;100.00;99218.00;7398818;19;20402;-46
2021/12/04 09:20:59;;;;;;;31.83;16.90;;;;;;;2.83;100.00;99220.66;7394142;19;20419;-47
2021/12/04 09:23:33;;;;;;;33.97;17.30;;;;;;;2.95;100.00;99216.97;7398730;19;20447;-48
2021/12/04 09:26:04;;;;;;;34.43;17.73;;;;;;;2.99;100.00;99220.53;7393793;19;20451;-47
2021/12/04 09:28:47;;;;;;;35.30;19.27;;;;;;;2.99;100.00;99226.50;7398855;19;20391;-48
2021/12/04 09:34:15;;;;;;;45.93;21.50;;;;;;;3.13;100.00;99222.03;7398339;19;20402;-48
2021/12/04 10:01:40;;;;;;;30.63;16.53;;;;;;;3.20;100.00;99196.06;7400234;19;20390;-46
2021/12/04 10:18:44;;;;;;;36.63;19.57;;;;;;;3.04;100.00;99174.09;7401620;19;20493;-46
2021/12/04 10:21:30;;;;;;;38.13;17.83;;;;;;;2.92;100.00;99176.06;7399559;19;20490;-47
2021/12/04 10:24:22;;;;;;;41.77;19.70;;;;;;;2.94;100.00;99174.47;7404082;19;20384;-47
2021/12/04 10:32:44;;;;;;;41.07;19.60;;;;;;;2.98;100.00;99166.16;7404063;19;20383;-46
2021/12/04 10:35:19;;;;;;;42.97;19.57;;;;;;;2.96;100.00;99155.00;7399354;19;20429;-49
2021/12/04 10:37:52;;;;;;;39.70;20.47;;;;;;;3.03;100.00;99163.81;7401965;19;20876;-47
2021/12/04 10:40:25;;;;;;;40.23;20.17;;;;;;;3.08;100.00;99167.47;7398750;19;20487;-46
2021/12/04 10:43:00;;;;;;;34.00;18.00;;;;;;;3.05;100.00;99170.75;7406021;19;20740;-46
2021/12/04 10:45:33;;;;;;;36.30;19.47;;;;;;;3.08;100.00;99168.31;7398132;19;20381;-45
2021/12/04 10:48:06;;;;;;;33.53;17.90;;;;;;;3.13;100.00;99162.56;7401159;19;20420;-46
2021/12/04 10:50:46;;;;;;;36.00;19.33;;;;;;;3.24;100.00;99169.91;7398666;19;20493;-45
2021/12/04 10:53:21;;;;;;;44.10;20.53;;;;;;;3.27;100.00;99166.63;7403443;19;20387;-51
2021/12/04 10:55:56;;;;;;;34.73;20.13;;;;;;;3.18;100.00;99163.66;7397549;19;20426;-49
2021/12/04 11:01:25;;;;;;;34.53;19.30;;;;;;;3.19;100.00;99155.19;7398351;19;20430;-50
2021/12/04 11:04:03;;;;;;;33.70;17.77;;;;;;;3.17;100.00;99155.13;7402708;19;20871;-50
2021/12/04 11:07:14;;;;;;;33.70;17.57;;;;;;;3.18;100.00;99148.38;7400472;19;20526;-46
2021/12/04 11:26:42;;;;;;;32.00;17.57;;;;;;;3.13;100.00;99139.63;7394218;19;20411;-46
2021/12/04 11:37:48;;;;;;;25.50;14.97;;;;;;;3.12;100.00;99131.09;7400326;19;20418;-47
2021/12/04 11:40:37;;;;;;;32.20;17.47;;;;;;;3.21;100.00;99125.53;7396056;19;20898;-45
2021/12/04 11:43:11;;;;;;;31.23;16.67;;;;;;;3.15;100.00;99125.28;7401851;19;20439;-46
2021/12/04 11:45:47;;;;;;;27.03;15.10;;;;;;;3.28;100.00;99117.38;7396487;19;20434;-45
2021/12/04 11:48:17;;;;;;;27.43;15.10;;;;;;;3.41;100.00;99120.47;7399264;19;20503;-47
2021/12/04 11:50:53;;;;;;;24.50;14.43;;;;;;;3.36;100.00;99118.59;7396942;19;20474;-47
2021/12/04 11:53:23;;;;;;;27.57;15.87;;;;;;;3.32;100.00;99103.97;7401368;19;20395;-47
2021/12/04 11:55:55;;;;;;;27.10;15.57;;;;;;;3.26;100.00;99103.69;7395683;19;20429;-47
2021/12/04 11:58:28;;;;;;;24.13;14.30;;;;;;;3.21;100.00;99100.06;7405523;19;20407;-49
2021/12/04 12:01:00;;;;;;;26.20;13.33;;;;;;;3.22;100.00;99095.03;7396084;19;20411;-46
2021/12/04 12:03:32;;;;;;;26.27;13.70;;;;;;;3.30;100.00;99102.16;7401063;19;20405;-47
2021/12/04 12:06:03;;;;;;;27.80;14.27;;;;;;;3.21;100.00;99098.41;7398473;19;20499;-47
2021/12/04 12:08:34;;;;;;;30.43;16.87;;;;;;;3.20;100.00;99096.66;7399315;19;20841;-49
2021/12/04 12:11:09;;;;;;;26.50;15.47;;;;;;;3.23;100.00;99094.22;7396054;19;20423;-46
2021/12/04 12:13:44;;;;;;;24.37;14.20;;;;;;;3.25;100.00;99089.22;7400684;19;20851;-49
2021/12/04 12:16:17;;;;;;;26.70;14.70;;;;;;;3.31;100.00;99086.94;7394459;19;20868;-48
2021/12/04 12:18:56;;;;;;;26.70;14.37;;;;;;;3.30;100.00;99092.84;7403433;19;20669;-52
2021/12/04 12:21:31;;;;;;;26.57;15.37;;;;;;;3.27;100.00;99091.84;7394707;19;20415;-46
2021/12/04 12:27:22;;;;;;;30.77;14.07;;;;;;;3.37;100.00;99097.41;7397672;19;20446;-47
2021/12/04 12:32:58;;;;;;;28.50;13.80;;;;;;;3.33;100.00;99098.06;7400170;19;20445;-51
2021/12/04 12:38:17;;;;;;;23.50;12.90;;;;;;;3.44;100.00;99105.31;7397571;19;20431;-49
2021/12/04 12:40:59;;;;;;;24.10;13.17;;;;;;;3.41;100.00;99100.06;7395095;19;20482;-48
2021/12/04 12:43:41;;;;;;;25.87;14.37;;;;;;;3.45;100.00;99097.75;7399907;19;20391;-50
2021/12/04 12:46:11;;;;;;;27.47;14.60;;;;;;;3.34;100.00;99099.78;7393861;19;20430;-47
2021/12/04 12:48:49;;;;;;;29.03;15.77;;;;;;;3.20;100.00;99101.75;7399132;19;20410;-47
2021/12/04 12:51:26;;;;;;;27.53;14.97;;;;;;;3.13;100.00;99101.41;7395230;19;20426;-47
2021/12/04 12:53:56;;;;;;;30.43;16.07;;;;;;;3.13;100.00;99093.75;7399635;19;20392;-46
2021/12/04 12:56:30;;;;;;;29.90;16.17;;;;;;;3.15;100.00;99093.03;7393415;19;20430;-50
2021/12/04 12:59:05;;;;;;;30.40;15.10;;;;;;;3.28;100.00;99084.22;7400663;19;20475;-46
2021/12/04 13:12:46;;;;;;;26.73;14.90;;;;;;;3.31;100.00;99069.09;7398818;19;20380;-46
2021/12/04 13:15:34;;;;;;;31.90;15.03;;;;;;;3.28;100.00;99061.28;7394172;19;20482;-48
2021/12/04 13:18:16;;;;;;;27.47;15.20;;;;;;;3.39;100.00;99066.88;7397262;19;20746;-47
2021/12/04 13:20:46;;;;;;;29.10;15.60;;;;;;;3.35;100.00;99068.41;7393867;19;20664;-46
2021/12/04 13:23:19;;;;;;;33.70;18.40;;;;;;;3.42;100.00;99058.47;7398948;19;20678;-45
2021/12/04 13:25:54;;;;;;;24.60;14.13;;;;;;;3.32;100.00;99045.31;7393615;19;20411;-46
2021/12/04 13:28:25;;;;;;;27.00;15.70;;;;;;;3.31;100.00;99047.81;7397566;19;20400;-48
2021/12/04 13:31:00;;;;;;;30.70;15.40;;;;;;;3.26;100.00;99046.72;7393926;19;20502;-49
2021/12/04 13:33:30;;;;;;;29.33;15.43;;;;;;;3.30;100.00;99048.63;7399885;19;20406;-51
2021/12/04 13:36:00;;;;;;;29.83;15.17;;;;;;;3.36;100.00;99043.78;7400346;19;20426;-51
2021/12/04 13:38:30;;;;;;;32.87;15.20;;;;;;;3.25;100.00;99040.78;7405708;19;20395;-53
2021/12/04 13:41:00;;;;;;;30.63;15.53;;;;;;;3.20;100.00;99029.50;7401064;19;20423;-52
2021/12/04 13:43:29;;;;;;;31.13;14.77;;;;;;;3.19;100.00;99030.31;7405852;19;21582;-51
2021/12/04 13:46:05;;;;;;;28.03;14.47;;;;;;;3.28;100.00;99025.59;7400923;19;20427;-50
2021/12/04 13:48:36;;;;;;;29.43;17.00;;;;;;;3.33;100.00;99025.81;7404343;19;20379;-48
2021/12/04 13:51:06;;;;;;;35.60;16.70;;;;;;;3.26;100.00;99019.56;7400710;19;20423;-47
2021/12/04 13:53:37;;;;;;;28.67;14.77;;;;;;;3.21;100.00;99018.50;7405417;19;20455;-47
2021/12/04 13:56:09;;;;;;;27.60;14.97;;;;;;;3.24;100.00;99021.19;7399772;19;20419;-48
2021/12/04 13:58:47;;;;;;;27.47;14.90;;;;;;;3.35;100.00;99024.19;7405252;19;20387;-48
2021/12/04 14:01:19;;;;;;;27.23;14.33;;;;;;;3.30;100.00;99024.00;7400691;19;20522;-50
2021/12/04 14:03:49;;;;;;;27.50;15.00;;;;;;;3.32;100.00;99018.94;7405069;19;20651;-49
2021/12/04 14:06:21;;;;;;;26.73;16.00;;;;;;;3.37;100.00;99020.03;7399007;19;20426;-54
2021/12/04 14:08:59;;;;;;;30.10;15.97;;;;;;;3.28;100.00;99017.94;7404479;19;20855;-46